createdAt,value
2023-10-21T00:01:33.370Z,0.85
2023-10-21T00:04:19.546Z,1.50
2023-10-21T00:07:05.716Z,1.42
2023-10-21T00:09:51.897Z,1.25
2023-10-21T00:12:38.603Z,0.98
2023-10-21T00:15:24.865Z,1.17
2023-10-21T00:18:13.608Z,0.93
2023-10-21T00:21:00.122Z,1.50
2023-10-21T00:23:46.175Z,1.60
2023-10-21T00:26:32.346Z,1.85
2023-10-21T00:29:19.995Z,1.45
2023-10-21T00:32:06.883Z,1.73
2023-10-21T00:34:54.017Z,1.08
2023-10-21T00:37:44.827Z,1.02
2023-10-21T00:40:31.176Z,0.82
2023-10-21T00:43:35.765Z,0.70
2023-10-21T00:46:24.200Z,0.85
2023-10-21T00:49:11.183Z,0.73
2023-10-21T00:51:57.762Z,1.55
2023-10-21T00:54:43.840Z,0.80
2023-10-21T00:57:30.260Z,1.20
2023-10-21T01:00:18.203Z,2.15
2023-10-21T01:03:23.812Z,1.60
2023-10-21T01:06:10.597Z,1.67
2023-10-21T01:08:57.456Z,1.70
2023-10-21T01:11:46.037Z,1.65
2023-10-21T01:14:32.183Z,2.42
2023-10-21T01:17:18.661Z,1.55
2023-10-21T01:20:07.833Z,1.10
2023-10-21T01:22:56.350Z,1.17
2023-10-21T01:25:42.720Z,1.33
2023-10-21T01:28:30.230Z,1.25
2023-10-21T01:31:16.187Z,2.00
2023-10-21T01:34:05.023Z,1.88
2023-10-21T01:36:56.675Z,1.88
2023-10-21T01:39:42.810Z,1.38
2023-10-21T01:42:29.041Z,2.03
2023-10-21T01:45:15.463Z,1.52
2023-10-21T01:48:01.576Z,1.17
2023-10-21T01:50:48.947Z,1.80
2023-10-21T01:53:35.177Z,2.20
2023-10-21T01:56:21.158Z,1.67
2023-10-21T01:59:09.384Z,1.75
2023-10-21T02:01:55.959Z,1.40
2023-10-21T02:04:42.118Z,1.55
2023-10-21T02:07:28.249Z,2.00
2023-10-21T02:10:14.966Z,2.10
2023-10-21T02:13:01.227Z,1.40
2023-10-21T02:15:47.562Z,1.92
2023-10-21T02:18:33.752Z,2.22
2023-10-21T02:21:19.759Z,1.63
2023-10-21T02:24:06.224Z,2.30
2023-10-21T02:26:52.434Z,1.27
2023-10-21T02:29:38.516Z,1.95
2023-10-21T02:32:24.819Z,2.10
2023-10-21T02:35:10.988Z,1.92
2023-10-21T02:37:57.147Z,1.40
2023-10-21T02:40:43.962Z,1.98
2023-10-21T02:43:30.294Z,2.75
2023-10-21T02:46:16.448Z,2.33
2023-10-21T02:49:02.974Z,2.05
2023-10-21T02:51:49.257Z,1.77
2023-10-21T02:54:35.158Z,1.13
2023-10-21T02:57:21.887Z,2.05
2023-10-21T03:00:12.050Z,2.00
2023-10-21T03:02:58.795Z,1.50
2023-10-21T03:05:45.011Z,1.65
2023-10-21T03:08:31.079Z,1.00
2023-10-21T03:11:17.532Z,1.50
2023-10-21T03:14:03.683Z,1.65
2023-10-21T03:16:50.133Z,1.95
2023-10-21T03:19:36.263Z,0.98
2023-10-21T03:22:22.868Z,1.55
2023-10-21T03:25:09.057Z,1.38
2023-10-21T03:27:55.265Z,1.17
2023-10-21T03:30:41.479Z,1.15
2023-10-21T03:33:28.902Z,1.05
2023-10-21T03:36:15.191Z,1.38
2023-10-21T03:39:01.495Z,1.05
2023-10-21T03:41:48.556Z,0.95
2023-10-21T03:44:35.014Z,1.55
2023-10-21T03:47:21.209Z,1.10
2023-10-21T03:50:08.105Z,1.48
2023-10-21T03:52:54.414Z,1.48
2023-10-21T03:55:40.299Z,1.40
2023-10-21T03:58:26.536Z,1.58
2023-10-21T04:01:13.104Z,1.27
2023-10-21T04:03:59.453Z,0.98
2023-10-21T04:06:45.652Z,1.27
2023-10-21T04:09:32.460Z,1.13
2023-10-21T04:12:18.622Z,1.60
2023-10-21T04:15:05.080Z,1.25
2023-10-21T04:17:51.698Z,1.50
2023-10-21T04:20:37.934Z,1.27
2023-10-21T04:23:24.142Z,1.60
2023-10-21T04:26:10.530Z,1.80
2023-10-21T04:28:56.839Z,1.25
2023-10-21T04:31:43.018Z,1.85
2023-10-21T04:34:29.309Z,1.85
2023-10-21T04:37:15.441Z,1.30
2023-10-21T04:40:01.914Z,1.15
2023-10-21T04:42:52.576Z,1.65
2023-10-21T04:45:38.925Z,1.27
2023-10-21T04:48:25.283Z,1.50
2023-10-21T04:51:11.707Z,1.48
2023-10-21T04:53:57.707Z,8.57
2023-10-21T04:56:45.172Z,8.32
2023-10-21T04:59:31.232Z,5.95
2023-10-21T05:02:17.546Z,2.33
2023-10-21T05:05:03.727Z,2.88
2023-10-21T05:07:50.804Z,1.77
2023-10-21T05:10:37.004Z,2.10
2023-10-21T05:13:23.190Z,2.78
2023-10-21T05:16:09.585Z,3.35
2023-10-21T05:18:55.620Z,2.33
2023-10-21T05:21:41.877Z,2.33
2023-10-21T05:24:28.658Z,2.90
2023-10-21T05:27:15.011Z,2.83
2023-10-21T05:30:01.384Z,4.57
2023-10-21T05:32:47.584Z,3.50
2023-10-21T05:35:33.739Z,4.70
2023-10-21T05:38:20.085Z,17.50
2023-10-21T05:41:06.194Z,3.85
2023-10-21T05:43:53.232Z,4.47
2023-10-21T05:46:39.282Z,3.20
2023-10-21T05:49:25.352Z,5.90
2023-10-21T05:52:11.588Z,3.10
2023-10-21T05:54:57.762Z,3.85
2023-10-21T05:57:44.208Z,3.13
2023-10-21T06:00:30.728Z,6.90
2023-10-21T06:03:17.580Z,3.78
2023-10-21T06:06:04.214Z,4.63
2023-10-21T06:08:50.342Z,3.50
2023-10-21T06:11:36.880Z,2.88
2023-10-21T06:14:22.923Z,3.70
2023-10-21T06:17:09.169Z,5.53
2023-10-21T06:19:55.076Z,6.30
2023-10-21T06:22:41.355Z,3.95
2023-10-21T06:25:27.598Z,4.35
2023-10-21T06:28:16.979Z,1.75
2023-10-21T06:31:03.486Z,2.75
2023-10-21T06:33:50.998Z,4.40
2023-10-21T06:36:37.244Z,3.83
2023-10-21T06:39:23.552Z,3.10
2023-10-21T06:42:09.907Z,2.83
2023-10-21T06:44:56.273Z,2.35
2023-10-21T06:47:42.333Z,3.72
2023-10-21T06:50:29.827Z,3.63
2023-10-21T06:53:16.082Z,6.85
2023-10-21T06:56:02.051Z,5.88
2023-10-21T06:58:51.272Z,3.65
2023-10-21T07:01:37.393Z,3.33
2023-10-21T07:04:23.506Z,3.72
2023-10-21T07:07:11.452Z,3.38
2023-10-21T07:09:57.590Z,2.67
2023-10-21T07:12:43.637Z,3.17
2023-10-21T07:15:29.649Z,4.35
2023-10-21T07:18:15.791Z,4.05
2023-10-21T07:21:02.496Z,3.03
2023-10-21T07:23:48.878Z,2.22
2023-10-21T07:26:35.819Z,2.03
2023-10-21T07:29:23.391Z,3.85
2023-10-21T07:32:09.440Z,2.55
2023-10-21T07:34:55.729Z,2.13
2023-10-21T07:37:42.040Z,4.47
2023-10-21T07:40:28.917Z,2.72
2023-10-21T07:43:17.556Z,1.70
2023-10-21T07:46:04.740Z,1.40
2023-10-21T07:48:51.745Z,0.82
2023-10-21T07:51:37.834Z,1.17
2023-10-21T07:54:24.119Z,1.33
2023-10-21T07:57:10.401Z,0.93
2023-10-21T07:59:56.822Z,1.08
2023-10-21T08:02:44.267Z,0.95
2023-10-21T08:05:31.194Z,1.10
2023-10-21T08:08:17.196Z,1.13
2023-10-21T08:11:04.238Z,1.20
2023-10-21T08:13:51.009Z,1.20
2023-10-21T08:16:37.550Z,1.52
2023-10-21T08:19:25.954Z,1.10
2023-10-21T08:22:11.866Z,1.30
2023-10-21T08:25:00.488Z,0.70
2023-10-21T08:27:46.466Z,1.25
2023-10-21T08:30:33.109Z,1.55
2023-10-21T08:33:22.234Z,1.15
2023-10-21T08:36:16.394Z,1.60
2023-10-21T08:39:02.825Z,1.67
2023-10-21T08:41:50.355Z,1.27
2023-10-21T08:44:37.459Z,2.55
2023-10-21T08:47:23.463Z,0.90
2023-10-21T08:50:10.488Z,1.20
2023-10-21T08:52:56.752Z,1.05
2023-10-21T08:55:42.900Z,0.63
2023-10-21T08:58:32.494Z,1.35
2023-10-21T09:01:18.886Z,0.98
2023-10-21T09:04:05.413Z,1.30
2023-10-21T09:06:56.047Z,1.45
2023-10-21T09:09:43.263Z,1.23
2023-10-21T09:12:30.772Z,1.73
2023-10-21T09:15:16.986Z,1.33
2023-10-21T09:18:09.883Z,1.65
2023-10-21T09:20:56.197Z,2.38
2023-10-21T09:23:54.433Z,1.25
2023-10-21T09:26:41.599Z,1.23
2023-10-21T09:29:28.007Z,1.17
2023-10-21T09:32:15.227Z,1.65
2023-10-21T09:35:18.183Z,3.22
2023-10-21T09:38:17.760Z,1.40
2023-10-21T09:41:11.283Z,1.52
2023-10-21T09:43:59.897Z,1.00
2023-10-21T09:46:47.401Z,1.05
2023-10-21T09:49:38.894Z,1.35
2023-10-21T09:55:13.958Z,1.40
2023-10-21T09:58:03.973Z,1.20
2023-10-21T10:00:50.787Z,1.10
2023-10-21T10:03:37.828Z,1.60
2023-10-21T10:06:30.556Z,1.65
2023-10-21T10:09:23.445Z,1.00
2023-10-21T10:12:13.462Z,1.05
2023-10-21T10:15:01.265Z,1.52
2023-10-21T10:17:49.468Z,1.38
2023-10-21T10:20:35.915Z,1.15
2023-10-21T10:23:26.069Z,2.30
2023-10-21T10:26:12.500Z,2.25
2023-10-21T10:29:00.672Z,2.20
2023-10-21T10:31:49.720Z,1.05
2023-10-21T10:34:53.483Z,1.88
2023-10-21T10:37:51.282Z,1.75
2023-10-21T10:40:40.145Z,1.65
2023-10-21T10:43:27.626Z,2.50
2023-10-21T10:46:24.465Z,1.55
2023-10-21T10:49:11.762Z,1.65
2023-10-21T10:51:58.900Z,1.10
2023-10-21T10:54:44.876Z,1.63
2023-10-21T10:57:31.793Z,1.85
2023-10-21T11:00:30.764Z,1.20
2023-10-21T11:03:25.215Z,1.83
2023-10-21T11:06:13.696Z,1.15
2023-10-21T11:09:00.880Z,1.85
2023-10-21T11:12:06.607Z,1.73
2023-10-21T11:14:58.552Z,1.42
2023-10-21T11:17:48.544Z,2.15
2023-10-21T11:20:34.897Z,1.25
2023-10-21T11:23:27.361Z,1.85
2023-10-21T11:26:15.471Z,1.85
2023-10-21T11:29:02.373Z,1.10
2023-10-21T11:31:48.335Z,1.20
2023-10-21T11:34:34.557Z,0.95
2023-10-21T11:37:20.434Z,1.58
2023-10-21T11:40:12.077Z,1.23
2023-10-21T11:45:44.544Z,1.25
2023-10-21T11:48:31.172Z,1.23
2023-10-21T11:51:17.951Z,2.00
2023-10-21T11:54:10.423Z,2.28
2023-10-21T12:00:28.816Z,2.25
2023-10-21T12:03:33.822Z,1.08
2023-10-21T12:06:38.893Z,1.95
2023-10-21T12:09:43.785Z,2.20
2023-10-21T12:12:38.692Z,1.80
2023-10-21T12:15:43.250Z,1.88
2023-10-21T12:18:45.947Z,1.30
2023-10-21T12:21:50.550Z,2.22
2023-10-21T12:24:45.723Z,1.55
2023-10-21T12:27:50.243Z,1.58
2023-10-21T12:30:48.492Z,1.42
2023-10-21T12:33:49.663Z,1.50
2023-10-21T12:36:38.815Z,1.47
2023-10-21T12:39:34.403Z,1.33
2023-10-21T12:42:27.280Z,1.33
2023-10-21T12:45:20.438Z,2.33
2023-10-21T12:48:10.200Z,1.40
2023-10-21T12:50:56.758Z,1.40
2023-10-21T12:53:43.305Z,1.50
2023-10-21T12:56:29.155Z,1.45
2023-10-21T12:59:15.515Z,2.30
2023-10-21T13:02:01.842Z,2.00
2023-10-21T13:04:48.185Z,1.70
2023-10-21T13:07:34.922Z,2.28
2023-10-21T13:10:20.861Z,2.17
2023-10-21T13:13:07.322Z,2.10
2023-10-21T13:15:53.340Z,1.25
2023-10-21T13:18:39.673Z,1.77
2023-10-21T13:21:25.942Z,2.42
2023-10-21T13:24:12.122Z,1.27
2023-10-21T13:26:58.368Z,2.03
2023-10-21T13:29:44.469Z,1.50
2023-10-21T13:32:30.874Z,1.30
2023-10-21T13:35:17.256Z,2.15
2023-10-21T13:38:04.066Z,2.17
2023-10-21T13:40:54.934Z,1.33
2023-10-21T13:43:41.006Z,1.23
2023-10-21T13:46:27.052Z,1.88
2023-10-21T13:49:16.797Z,1.38
2023-10-21T13:52:03.274Z,1.80
2023-10-21T13:54:49.607Z,1.98
2023-10-21T13:57:35.668Z,1.20
2023-10-21T14:00:43.411Z,2.13
2023-10-21T14:03:29.696Z,2.58
2023-10-21T14:06:15.593Z,1.35
2023-10-21T14:09:03.308Z,1.90
2023-10-21T14:11:50.144Z,1.85
2023-10-21T14:14:36.298Z,1.30
2023-10-21T14:17:22.121Z,1.40
2023-10-21T14:20:12.110Z,1.30
2023-10-21T14:22:59.033Z,1.77
2023-10-21T14:25:46.393Z,2.60
2023-10-21T14:28:32.972Z,2.30
2023-10-21T14:31:25.576Z,1.75
2023-10-21T14:34:11.958Z,1.85
2023-10-21T14:36:59.029Z,1.55
2023-10-21T14:39:45.264Z,2.00
2023-10-21T14:42:31.633Z,1.52
2023-10-21T14:45:37.305Z,2.13
2023-10-21T14:48:25.105Z,2.33
2023-10-21T14:51:11.351Z,1.50
2023-10-21T14:53:57.509Z,1.52
2023-10-21T14:56:43.820Z,2.25
2023-10-21T14:59:30.499Z,2.10
2023-10-21T15:02:19.352Z,1.85
2023-10-21T15:05:07.477Z,2.65
2023-10-21T15:07:53.672Z,2.03
2023-10-21T15:10:42.921Z,1.95
2023-10-21T15:13:32.020Z,1.50
2023-10-21T15:16:18.413Z,1.50
2023-10-21T15:19:05.832Z,1.77
2023-10-21T15:21:52.860Z,1.38
2023-10-21T15:24:39.222Z,1.90
2023-10-21T15:27:27.619Z,2.22
2023-10-21T15:30:17.637Z,1.88
2023-10-21T15:33:04.148Z,2.05
2023-10-21T15:35:54.366Z,2.55
2023-10-21T15:38:40.255Z,2.90
2023-10-21T15:41:28.469Z,2.85
2023-10-21T15:44:15.567Z,3.45
2023-10-21T15:47:01.506Z,2.15
2023-10-21T15:49:48.174Z,2.30
2023-10-21T15:52:34.662Z,2.80
2023-10-21T15:55:20.544Z,2.60
2023-10-21T15:58:06.792Z,2.78
2023-10-21T16:00:53.268Z,2.38
2023-10-21T16:03:40.293Z,1.58
2023-10-21T16:06:31.946Z,2.85
2023-10-21T16:09:20.582Z,2.13
2023-10-21T16:12:10.586Z,1.50
2023-10-21T16:14:56.650Z,1.38
2023-10-21T16:17:43.005Z,1.42
2023-10-21T16:20:29.521Z,2.63
2023-10-21T16:23:16.010Z,2.15
2023-10-21T16:26:01.893Z,2.92
2023-10-21T16:28:49.442Z,2.50
2023-10-21T16:31:35.651Z,3.00
2023-10-21T16:34:22.968Z,1.45
2023-10-21T16:37:09.398Z,2.67
2023-10-21T16:39:57.386Z,2.33
2023-10-21T16:42:44.118Z,2.45
2023-10-21T16:45:30.669Z,2.30
2023-10-21T16:48:17.194Z,2.25
2023-10-21T16:51:03.192Z,1.90
2023-10-21T16:53:49.454Z,4.80
2023-10-21T16:56:35.600Z,6.55
2023-10-21T16:59:21.836Z,4.22
2023-10-21T17:02:14.830Z,2.50
2023-10-21T17:05:01.054Z,3.70
2023-10-21T17:07:54.827Z,2.33
2023-10-21T17:10:40.851Z,2.63
2023-10-21T17:13:27.263Z,2.40
2023-10-21T17:16:13.955Z,4.20
2023-10-21T17:19:00.409Z,5.40
2023-10-21T17:21:46.818Z,18.27
2023-10-21T17:24:33.215Z,14.00
2023-10-21T17:27:19.275Z,14.10
2023-10-21T17:30:06.518Z,2.75
2023-10-21T17:32:52.652Z,1.75
2023-10-21T17:35:38.731Z,2.00
2023-10-21T17:38:24.993Z,2.67
2023-10-21T17:41:11.439Z,1.85
2023-10-21T17:43:58.214Z,1.92
2023-10-21T17:46:45.369Z,2.55
2023-10-21T17:49:32.232Z,2.20
2023-10-21T17:52:18.882Z,0.98
2023-10-21T17:55:06.557Z,1.77
2023-10-21T17:57:53.229Z,1.30
2023-10-21T18:00:39.330Z,2.13
2023-10-21T18:03:25.748Z,2.22
2023-10-21T18:06:15.217Z,1.80
2023-10-21T18:09:02.297Z,0.77
2023-10-21T18:11:48.434Z,1.40
2023-10-21T18:14:34.749Z,2.25
2023-10-21T18:17:21.100Z,2.80
2023-10-21T18:20:10.782Z,2.35
2023-10-21T18:22:59.011Z,1.38
2023-10-21T18:25:45.456Z,1.73
2023-10-21T18:28:32.334Z,1.63
2023-10-21T18:31:19.953Z,1.27
2023-10-21T18:34:06.013Z,1.65
2023-10-21T18:36:52.465Z,1.55
2023-10-21T18:39:39.541Z,1.95
2023-10-21T18:42:25.927Z,1.65
2023-10-21T18:45:12.212Z,1.55
2023-10-21T18:47:58.268Z,1.52
2023-10-21T18:50:44.368Z,1.30
2023-10-21T18:53:31.024Z,1.60
2023-10-21T18:56:16.931Z,0.90
2023-10-21T18:59:03.375Z,0.95
2023-10-21T19:01:49.812Z,1.38
2023-10-21T19:04:38.595Z,1.60
2023-10-21T19:07:24.854Z,1.60
2023-10-21T19:10:12.092Z,0.75
2023-10-21T19:12:58.585Z,1.88
2023-10-21T19:15:45.633Z,1.77
2023-10-21T19:18:31.871Z,1.77
2023-10-21T19:21:17.943Z,2.10
2023-10-21T19:24:04.770Z,1.63
2023-10-21T19:26:50.795Z,1.95
2023-10-21T19:29:37.205Z,2.13
2023-10-21T19:32:24.506Z,1.45
2023-10-21T19:35:10.476Z,1.98
2023-10-21T19:37:56.824Z,1.48
2023-10-21T19:40:43.239Z,1.10
2023-10-21T19:43:29.674Z,1.42
2023-10-21T19:46:15.957Z,1.20
2023-10-21T19:49:04.566Z,1.58
2023-10-21T19:51:51.510Z,1.45
2023-10-21T19:54:37.553Z,1.30
2023-10-21T19:57:23.698Z,1.65
2023-10-21T20:00:10.490Z,1.85
2023-10-21T20:02:59.406Z,1.10
2023-10-21T20:05:45.846Z,1.67
2023-10-21T20:08:32.540Z,1.48
2023-10-21T20:11:18.587Z,1.85
2023-10-21T20:14:04.810Z,1.33
2023-10-21T20:16:51.053Z,1.90
2023-10-21T20:19:37.420Z,1.65
2023-10-21T20:22:23.517Z,1.35
2023-10-21T20:25:09.880Z,1.55
2023-10-21T20:27:56.722Z,2.15
2023-10-21T20:30:47.160Z,1.40
2023-10-21T20:33:34.739Z,1.73
2023-10-21T20:36:22.577Z,0.98
2023-10-21T20:39:08.507Z,1.27
2023-10-21T20:41:57.601Z,1.52
2023-10-21T20:44:46.860Z,1.70
2023-10-21T20:47:32.645Z,1.40
2023-10-21T20:50:20.320Z,1.70
2023-10-21T20:53:06.948Z,1.58
2023-10-21T20:55:53.217Z,1.70
2023-10-21T20:58:41.067Z,1.58
2023-10-21T21:01:37.037Z,1.42
2023-10-21T21:04:24.246Z,1.58
2023-10-21T21:07:10.116Z,1.13
2023-10-21T21:10:02.809Z,1.70
2023-10-21T21:12:51.974Z,1.48
2023-10-21T21:15:38.407Z,1.38
2023-10-21T21:18:24.607Z,1.55
2023-10-21T21:21:10.888Z,1.27
2023-10-21T21:23:57.293Z,2.17
2023-10-21T21:26:43.661Z,1.38
2023-10-21T21:29:30.985Z,2.05
2023-10-21T21:32:17.269Z,2.30
2023-10-21T21:35:07.359Z,2.35
2023-10-21T21:37:53.696Z,1.40
2023-10-21T21:40:40.101Z,1.98
2023-10-21T21:43:26.679Z,1.55
2023-10-21T21:46:20.766Z,2.03
2023-10-21T21:49:07.641Z,1.52
2023-10-21T21:51:53.975Z,2.10
2023-10-21T21:54:43.000Z,2.05
2023-10-21T21:57:29.040Z,2.22
2023-10-21T22:00:21.221Z,2.25
2023-10-21T22:03:07.562Z,1.00
2023-10-21T22:05:55.853Z,0.57
2023-10-21T22:08:41.853Z,0.60
2023-10-21T22:11:28.882Z,1.55
2023-10-21T22:14:15.809Z,0.55
2023-10-21T22:17:02.862Z,0.40
2023-10-21T22:19:49.333Z,0.25
2023-10-21T22:22:35.997Z,0.40
2023-10-21T22:25:40.191Z,0.32
2023-10-21T22:28:26.236Z,0.40
2023-10-21T22:31:12.558Z,0.38
2023-10-21T22:33:58.950Z,0.40
2023-10-21T22:36:45.838Z,0.40
2023-10-21T22:39:32.935Z,0.32
2023-10-21T22:42:19.045Z,0.55
2023-10-21T22:45:05.659Z,0.38
2023-10-21T22:47:53.043Z,0.32
2023-10-21T22:50:39.437Z,0.45
2023-10-21T22:53:25.644Z,0.20
2023-10-21T22:56:12.784Z,0.32
2023-10-21T22:58:58.969Z,0.30
2023-10-21T23:01:45.223Z,0.30
2023-10-21T23:04:32.191Z,0.28
2023-10-21T23:07:18.211Z,0.20
2023-10-21T23:10:29.566Z,0.30
2023-10-21T23:13:15.533Z,0.40
2023-10-21T23:16:02.017Z,0.20
2023-10-21T23:18:48.255Z,0.17
2023-10-21T23:21:35.107Z,0.20
2023-10-21T23:24:21.328Z,0.68
2023-10-21T23:27:07.824Z,0.20
2023-10-21T23:29:54.081Z,0.10
2023-10-21T23:32:40.228Z,0.28
2023-10-21T23:35:26.622Z,0.30
2023-10-21T23:38:13.596Z,0.10
2023-10-21T23:41:00.869Z,0.20
2023-10-21T23:43:47.113Z,0.20
2023-10-21T23:46:33.625Z,0.20
2023-10-21T23:49:19.754Z,0.10
2023-10-21T23:52:06.078Z,0.22
2023-10-21T23:54:52.542Z,0.20
2023-10-21T23:57:39.010Z,0.30
